Manistique, Michigan
Current Conditions -  °F | °C
As of 1:15 AM on Thursday 29 Jan 2015 (Local Time) from KISQ Reporting Station
Overcast Overcast  
Wind Chill: 21°   Ceiling: 8000
Heat Index: 30°   Visibility: 10mi
Dew Point: 22°   Wind: 12mph
Humidity: 72%   Direction: 150°SSE
Pressure: 29.87"   Gusts: NA
Location:  45.96°N, 86.25°W
Report Text: KISQ 290615Z AUTO 15010KT 10SM OVC080 M01/M06 A2987 RMK AO2 T10111056
Loading
Personal Weather Stations






























Interactive Weather Map New forecast layout! Learn more

10-Day Weather Forecast

Advertisements
Track Severe Weather on mobile